createdAt,value
2023-05-04T00:00:51.937Z,35.91
2023-05-04T00:03:19.842Z,35.88
2023-05-04T00:05:47.769Z,35.92
2023-05-04T00:08:15.533Z,35.98
2023-05-04T00:10:43.380Z,36.03
2023-05-04T00:13:12.229Z,36.04
2023-05-04T00:15:40.103Z,36.00
2023-05-04T00:18:08.641Z,36.00
2023-05-04T00:20:36.479Z,36.05
2023-05-04T00:23:04.193Z,36.16
2023-05-04T00:25:32.048Z,36.17
2023-05-04T00:27:59.728Z,36.09
2023-05-04T00:30:27.526Z,36.09
2023-05-04T00:32:55.367Z,36.30
2023-05-04T00:35:23.204Z,36.28
2023-05-04T00:37:51.069Z,36.27
2023-05-04T00:40:19.121Z,36.32
2023-05-04T00:42:47.071Z,36.48
2023-05-04T00:45:15.629Z,36.40
2023-05-04T00:47:44.312Z,36.45
2023-05-04T00:50:12.794Z,36.38
2023-05-04T00:52:43.684Z,36.41
2023-05-04T00:55:11.841Z,36.46
2023-05-04T00:57:40.789Z,36.58
2023-05-04T01:00:10.662Z,36.46
2023-05-04T01:02:38.386Z,36.42
2023-05-04T01:05:07.873Z,36.52
2023-05-04T01:08:19.495Z,36.59
2023-05-04T01:11:00.472Z,36.62
2023-05-04T01:13:28.671Z,36.62
2023-05-04T01:15:56.700Z,36.56
2023-05-04T01:18:24.551Z,36.65
2023-05-04T01:20:52.279Z,36.61
2023-05-04T01:23:20.904Z,36.66
2023-05-04T01:26:08.215Z,36.65
2023-05-04T01:28:51.739Z,36.72
2023-05-04T01:31:23.186Z,36.83
2023-05-04T01:33:52.985Z,36.92
2023-05-04T01:36:22.302Z,36.72
2023-05-04T01:38:54.033Z,36.75
2023-05-04T01:41:21.885Z,36.77
2023-05-04T01:43:50.202Z,36.70
2023-05-04T01:46:18.023Z,36.84
2023-05-04T01:48:45.720Z,36.88
2023-05-04T01:51:13.547Z,36.80
2023-05-04T01:53:41.252Z,36.97
2023-05-04T01:56:09.118Z,37.06
2023-05-04T01:58:36.899Z,37.10
2023-05-04T02:01:04.960Z,37.10
2023-05-04T02:03:32.874Z,37.01
2023-05-04T02:06:00.788Z,37.17
2023-05-04T02:08:28.627Z,37.17
2023-05-04T02:10:56.477Z,37.21
2023-05-04T02:13:24.962Z,37.24
2023-05-04T02:15:52.801Z,37.12
2023-05-04T02:18:20.625Z,37.13
2023-05-04T02:20:49.922Z,37.32
2023-05-04T02:23:17.659Z,37.35
2023-05-04T02:25:45.533Z,37.25
2023-05-04T02:28:13.315Z,37.38
2023-05-04T02:30:42.366Z,37.37
2023-05-04T02:33:10.744Z,37.42
2023-05-04T02:35:38.665Z,37.55
2023-05-04T02:38:06.848Z,37.42
2023-05-04T02:40:34.709Z,37.46
2023-05-04T02:43:02.416Z,37.47
2023-05-04T02:45:30.214Z,37.62
2023-05-04T02:47:57.987Z,37.75
2023-05-04T02:50:25.973Z,37.76
2023-05-04T02:52:53.711Z,37.69
2023-05-04T02:55:21.498Z,37.76
2023-05-04T02:57:49.149Z,37.81
2023-05-04T03:00:17.496Z,37.72
2023-05-04T03:02:45.321Z,37.79
2023-05-04T03:05:13.063Z,37.80
2023-05-04T03:07:40.802Z,37.72
2023-05-04T03:10:09.702Z,37.85
2023-05-04T03:12:37.469Z,37.75
2023-05-04T03:15:05.985Z,37.86
2023-05-04T03:17:33.671Z,37.97
2023-05-04T03:20:02.053Z,38.08
2023-05-04T03:22:32.181Z,38.05
2023-05-04T03:25:00.464Z,38.21
2023-05-04T03:27:28.216Z,38.15
2023-05-04T03:29:56.137Z,38.19
2023-05-04T03:32:24.819Z,38.25
2023-05-04T03:34:52.726Z,38.36
2023-05-04T03:37:23.544Z,38.25
2023-05-04T03:39:51.884Z,38.37
2023-05-04T03:42:19.588Z,38.54
2023-05-04T03:44:48.236Z,38.51
2023-05-04T03:47:16.231Z,38.38
2023-05-04T03:49:44.081Z,38.56
2023-05-04T03:52:11.882Z,38.75
2023-05-04T03:54:39.710Z,38.69
2023-05-04T03:57:07.436Z,38.73
2023-05-04T03:59:36.968Z,38.76
2023-05-04T04:02:06.729Z,38.81
2023-05-04T04:04:34.638Z,38.97
2023-05-04T04:07:02.505Z,39.22
2023-05-04T04:09:31.948Z,39.13
2023-05-04T04:11:59.656Z,39.45
2023-05-04T04:14:27.580Z,39.40
2023-05-04T04:16:55.253Z,39.51
2023-05-04T04:19:22.993Z,39.79
2023-05-04T04:21:50.986Z,39.76
2023-05-04T04:24:18.803Z,39.86
2023-05-04T04:26:46.879Z,40.01
2023-05-04T04:29:14.703Z,39.88
2023-05-04T04:31:42.837Z,39.93
2023-05-04T04:34:10.676Z,40.01
2023-05-04T04:36:38.744Z,40.00
2023-05-04T04:39:06.601Z,39.99
2023-05-04T04:41:34.492Z,39.96
2023-05-04T04:44:02.619Z,40.19
2023-05-04T04:46:30.404Z,40.12
2023-05-04T04:48:58.560Z,40.30
2023-05-04T04:51:26.564Z,40.38
2023-05-04T04:53:54.362Z,40.23
2023-05-04T04:56:22.481Z,40.30
2023-05-04T04:58:51.025Z,40.28
2023-05-04T05:01:18.872Z,40.24
2023-05-04T05:03:47.028Z,40.26
2023-05-04T05:06:15.031Z,40.40
2023-05-04T05:08:43.977Z,40.34
2023-05-04T05:11:12.849Z,40.45
2023-05-04T05:13:40.750Z,40.27
2023-05-04T05:16:08.676Z,40.32
2023-05-04T05:18:36.568Z,40.44
2023-05-04T05:21:05.324Z,40.37
2023-05-04T05:23:33.022Z,40.42
2023-05-04T05:26:03.140Z,40.45
2023-05-04T05:28:31.516Z,40.51
2023-05-04T05:30:59.344Z,40.53
2023-05-04T05:33:27.124Z,40.58
2023-05-04T05:35:54.830Z,40.83
2023-05-04T05:38:22.671Z,40.63
2023-05-04T05:40:50.342Z,40.77
2023-05-04T05:43:18.178Z,40.79
2023-05-04T05:45:45.897Z,40.94
2023-05-04T05:48:13.675Z,40.84
2023-05-04T05:50:41.558Z,40.91
2023-05-04T05:53:09.304Z,40.96
2023-05-04T05:55:36.986Z,41.14
2023-05-04T05:58:05.798Z,41.04
2023-05-04T06:00:33.552Z,41.06
2023-05-04T06:03:01.310Z,41.15
2023-05-04T06:05:29.082Z,41.19
2023-05-04T06:07:56.870Z,41.35
2023-05-04T06:10:24.655Z,41.23
2023-05-04T06:12:52.509Z,41.22
2023-05-04T06:15:21.157Z,41.21
2023-05-04T06:17:49.862Z,41.52
2023-05-04T06:20:18.113Z,41.43
2023-05-04T06:22:45.955Z,41.62
2023-05-04T06:25:13.764Z,41.74
2023-05-04T06:27:41.583Z,41.82
2023-05-04T06:30:10.120Z,41.71
2023-05-04T06:32:37.854Z,41.70
2023-05-04T06:35:09.010Z,41.72
2023-05-04T06:37:37.412Z,41.70
2023-05-04T06:40:07.206Z,41.64
2023-05-04T06:42:35.072Z,41.65
2023-05-04T06:45:03.299Z,41.69
2023-05-04T06:47:31.463Z,41.58
2023-05-04T06:49:59.277Z,41.50
2023-05-04T06:52:29.645Z,41.39
2023-05-04T06:54:57.422Z,41.48
2023-05-04T06:57:25.101Z,41.48
2023-05-04T06:59:52.829Z,41.52
2023-05-04T07:02:20.568Z,41.21
2023-05-04T07:04:48.408Z,41.19
2023-05-04T07:07:16.559Z,41.13
2023-05-04T07:09:44.487Z,41.04
2023-05-04T07:12:12.285Z,41.00
2023-05-04T07:14:40.114Z,40.93
2023-05-04T07:17:10.232Z,40.90
2023-05-04T07:19:38.025Z,40.89
2023-05-04T07:22:05.667Z,40.80
2023-05-04T07:24:33.500Z,40.85
2023-05-04T07:27:01.993Z,40.64
2023-05-04T07:29:29.757Z,40.59
2023-05-04T07:31:57.615Z,40.51
2023-05-04T07:34:37.965Z,40.55
2023-05-04T07:37:10.165Z,40.72
2023-05-04T07:39:38.812Z,40.38
2023-05-04T07:42:08.306Z,40.31
2023-05-04T07:44:36.347Z,40.42
2023-05-04T07:47:05.336Z,40.27
2023-05-04T07:49:33.249Z,40.12
2023-05-04T07:52:01.025Z,40.44
2023-05-04T07:54:28.732Z,40.17
2023-05-04T07:56:56.440Z,40.41
2023-05-04T07:59:24.158Z,40.27
2023-05-04T08:01:51.951Z,40.39
2023-05-04T08:04:19.721Z,40.36
2023-05-04T08:06:49.411Z,40.04
2023-05-04T08:09:18.979Z,40.18
2023-05-04T08:11:48.581Z,39.96
2023-05-04T08:14:16.379Z,40.28
2023-05-04T08:16:44.274Z,40.19
2023-05-04T08:19:12.484Z,39.92
2023-05-04T08:21:43.210Z,39.92
2023-05-04T08:24:11.358Z,40.03
2023-05-04T08:26:39.536Z,39.92
2023-05-04T08:29:10.332Z,40.14
2023-05-04T08:31:38.802Z,39.83
2023-05-04T08:34:07.263Z,40.10
2023-05-04T08:36:35.037Z,39.71
2023-05-04T08:39:02.831Z,39.97
2023-05-04T08:41:30.912Z,39.67
2023-05-04T08:44:00.181Z,39.72
2023-05-04T08:46:32.501Z,39.48
2023-05-04T08:49:00.523Z,39.49
2023-05-04T08:51:29.713Z,39.48
2023-05-04T08:53:58.708Z,39.48
2023-05-04T08:56:26.439Z,39.28
2023-05-04T08:58:58.251Z,39.21
2023-05-04T09:01:26.492Z,39.27
2023-05-04T09:03:54.788Z,39.13
2023-05-04T09:06:23.034Z,38.97
2023-05-04T09:08:50.768Z,39.11
2023-05-04T09:11:18.568Z,39.16
2023-05-04T09:13:47.022Z,38.93
2023-05-04T09:16:16.315Z,38.81
2023-05-04T09:18:45.055Z,38.76
2023-05-04T09:21:12.909Z,38.84
2023-05-04T09:23:53.972Z,38.65
2023-05-04T09:26:33.139Z,38.59
2023-05-04T09:29:15.194Z,38.40
2023-05-04T09:31:49.933Z,38.23
2023-05-04T09:34:20.426Z,38.13
2023-05-04T09:37:01.930Z,37.76
2023-05-04T09:39:30.570Z,37.68
2023-05-04T09:41:58.318Z,37.67
2023-05-04T09:44:29.484Z,37.29
2023-05-04T09:46:59.417Z,37.08
2023-05-04T09:49:35.960Z,36.92
2023-05-04T09:52:06.937Z,36.78
2023-05-04T09:54:36.354Z,36.68
2023-05-04T09:57:15.279Z,36.22
2023-05-04T09:59:43.406Z,36.37
2023-05-04T10:02:21.693Z,36.29
2023-05-04T10:04:52.726Z,36.09
2023-05-04T10:07:21.797Z,35.79
2023-05-04T10:09:51.402Z,36.16
2023-05-04T10:12:19.328Z,35.84
2023-05-04T10:14:47.459Z,35.71
2023-05-04T10:17:36.977Z,35.44
2023-05-04T10:20:38.386Z,35.67
2023-05-04T10:23:14.721Z,35.37
2023-05-04T10:26:13.711Z,35.08
2023-05-04T10:29:25.198Z,35.49
2023-05-04T10:31:53.526Z,35.33
2023-05-04T10:34:33.019Z,34.77
2023-05-04T10:37:03.715Z,35.00
2023-05-04T10:39:34.093Z,34.67
2023-05-04T10:42:07.514Z,34.68
2023-05-04T10:44:55.442Z,34.15
2023-05-04T10:47:35.435Z,34.00
2023-05-04T10:50:15.865Z,33.67
2023-05-04T10:52:57.660Z,33.99
2023-05-04T10:55:26.736Z,33.80
2023-05-04T10:57:57.153Z,33.45
2023-05-04T11:00:40.556Z,33.36
2023-05-04T11:03:08.982Z,33.48
2023-05-04T11:05:54.637Z,33.02
2023-05-04T11:08:24.820Z,33.19
2023-05-04T11:11:04.645Z,32.82
2023-05-04T11:13:35.414Z,32.58
2023-05-04T11:16:03.376Z,32.98
2023-05-04T11:18:35.348Z,32.41
2023-05-04T11:21:03.848Z,32.52
2023-05-04T11:23:32.296Z,32.40
2023-05-04T11:26:12.336Z,32.39
2023-05-04T11:28:40.385Z,32.55
2023-05-04T11:31:16.124Z,32.16
2023-05-04T11:33:54.960Z,31.68
2023-05-04T11:36:23.407Z,31.95
2023-05-04T11:38:51.354Z,31.83
2023-05-04T11:41:19.192Z,31.54
2023-05-04T11:43:47.808Z,31.60
2023-05-04T11:46:16.802Z,31.33
2023-05-04T11:48:45.103Z,31.14
2023-05-04T11:51:13.296Z,31.03
2023-05-04T11:53:41.663Z,30.84
2023-05-04T11:56:09.810Z,30.83
2023-05-04T11:58:37.994Z,30.46
2023-05-04T12:01:05.974Z,30.80
2023-05-04T12:03:52.182Z,30.72
2023-05-04T12:06:34.552Z,30.47
2023-05-04T12:09:04.775Z,30.84
2023-05-04T12:11:33.162Z,30.79
2023-05-04T12:14:17.100Z,30.16
2023-05-04T12:16:55.179Z,30.11
2023-05-04T12:19:23.102Z,30.16
2023-05-04T12:21:53.467Z,30.48
2023-05-04T12:24:26.799Z,30.30
2023-05-04T12:26:54.740Z,30.04
2023-05-04T12:29:22.512Z,29.61
2023-05-04T12:31:50.362Z,29.51
2023-05-04T12:34:18.213Z,29.33
2023-05-04T12:36:46.253Z,29.25
2023-05-04T12:39:14.234Z,29.03
2023-05-04T12:41:41.905Z,29.04
2023-05-04T12:44:11.515Z,28.84
2023-05-04T12:46:39.429Z,28.70
2023-05-04T12:49:07.263Z,28.86
2023-05-04T12:51:35.012Z,28.36
2023-05-04T12:54:03.006Z,28.47
2023-05-04T12:56:32.201Z,28.34
2023-05-04T12:59:01.852Z,27.86
2023-05-04T13:01:30.176Z,27.99
2023-05-04T13:03:58.009Z,27.91
2023-05-04T13:06:25.775Z,28.14
2023-05-04T13:08:53.640Z,27.73
2023-05-04T13:11:21.423Z,27.57
2023-05-04T13:13:50.986Z,27.60
2023-05-04T13:16:19.036Z,27.80
2023-05-04T13:18:48.511Z,27.35
2023-05-04T13:21:16.240Z,27.54
2023-05-04T13:23:43.945Z,27.19
2023-05-04T13:26:11.812Z,27.11
2023-05-04T13:28:41.021Z,27.08
2023-05-04T13:31:09.818Z,27.08
2023-05-04T13:33:41.220Z,27.00
2023-05-04T13:36:09.179Z,26.84
2023-05-04T13:38:38.236Z,26.84
2023-05-04T13:41:06.114Z,26.86
2023-05-04T13:43:37.922Z,27.08
2023-05-04T13:46:06.735Z,27.00
2023-05-04T13:48:35.838Z,26.66
2023-05-04T13:51:04.656Z,26.60
2023-05-04T13:53:35.407Z,26.63
2023-05-04T13:56:03.385Z,26.60
2023-05-04T13:58:33.297Z,26.70
2023-05-04T14:01:01.194Z,26.26
2023-05-04T14:03:37.081Z,26.27
2023-05-04T14:06:12.722Z,26.38
2023-05-04T14:08:40.684Z,26.30
2023-05-04T14:11:08.344Z,26.42
2023-05-04T14:13:36.339Z,26.11
2023-05-04T14:16:04.238Z,26.18
2023-05-04T14:18:32.918Z,25.84
2023-05-04T14:21:01.117Z,26.11
2023-05-04T14:23:28.845Z,26.07
2023-05-04T14:25:57.920Z,26.12
2023-05-04T14:28:26.054Z,26.35
2023-05-04T14:30:55.810Z,26.13
2023-05-04T14:33:23.819Z,26.07
2023-05-04T14:35:52.973Z,26.09
2023-05-04T14:38:20.701Z,26.15
2023-05-04T14:40:52.090Z,25.89
2023-05-04T14:43:21.513Z,25.60
2023-05-04T14:45:51.033Z,25.71
2023-05-04T14:48:18.868Z,25.80
2023-05-04T14:50:47.799Z,25.75
2023-05-04T14:53:15.486Z,25.69
2023-05-04T14:55:44.883Z,25.77
2023-05-04T14:58:14.031Z,25.70
2023-05-04T15:00:42.473Z,25.65
2023-05-04T15:03:16.361Z,25.37
2023-05-04T15:05:45.678Z,25.45
2023-05-04T15:08:13.468Z,25.23
2023-05-04T15:10:41.335Z,25.03
2023-05-04T15:13:09.383Z,25.18
2023-05-04T15:15:40.448Z,25.04
2023-05-04T15:18:08.273Z,25.20
2023-05-04T15:20:39.109Z,25.09
2023-05-04T15:23:10.659Z,24.91
2023-05-04T15:25:43.414Z,24.92
2023-05-04T15:28:11.986Z,25.04
2023-05-04T15:30:42.776Z,24.81
2023-05-04T15:33:12.448Z,24.71
2023-05-04T15:35:40.183Z,24.85
2023-05-04T15:38:07.962Z,24.97
2023-05-04T15:40:39.883Z,24.57
2023-05-04T15:43:07.583Z,24.77
2023-05-04T15:45:38.480Z,24.73
2023-05-04T15:48:07.109Z,24.73
2023-05-04T15:50:34.933Z,24.84
2023-05-04T15:53:02.649Z,24.67
2023-05-04T15:55:30.528Z,24.67
2023-05-04T15:57:58.235Z,24.44
2023-05-04T16:00:26.147Z,24.57
2023-05-04T16:02:53.943Z,24.53
2023-05-04T16:05:22.095Z,24.24
2023-05-04T16:07:51.129Z,24.47
2023-05-04T16:10:19.214Z,24.39
2023-05-04T16:12:46.958Z,24.47
2023-05-04T16:15:14.935Z,24.32
2023-05-04T16:17:42.753Z,24.48
2023-05-04T16:20:11.262Z,24.63
2023-05-04T16:22:44.498Z,24.46
2023-05-04T16:25:12.335Z,24.38
2023-05-04T16:27:40.097Z,24.33
2023-05-04T16:30:09.580Z,24.29
2023-05-04T16:32:37.931Z,24.42
2023-05-04T16:35:06.366Z,24.54
2023-05-04T16:37:40.232Z,24.38
2023-05-04T16:40:15.559Z,24.31
2023-05-04T16:42:44.295Z,24.68
2023-05-04T16:45:16.296Z,24.52
2023-05-04T16:47:45.342Z,24.38
2023-05-04T16:50:14.790Z,24.46
2023-05-04T16:52:42.687Z,24.47
2023-05-04T16:55:12.092Z,24.46
2023-05-04T16:57:41.314Z,24.64
2023-05-04T17:00:11.750Z,24.60
2023-05-04T17:02:39.788Z,24.75
2023-05-04T17:05:10.151Z,24.81
2023-05-04T17:07:39.707Z,24.72
2023-05-04T17:10:09.130Z,24.75
2023-05-04T17:12:37.133Z,24.93
2023-05-04T17:15:05.821Z,24.87
2023-05-04T17:17:33.564Z,24.89
2023-05-04T17:20:03.718Z,25.03
2023-05-04T17:22:32.287Z,24.86
2023-05-04T17:25:00.141Z,25.09
2023-05-04T17:27:28.007Z,25.09
2023-05-04T17:29:57.854Z,25.03
2023-05-04T17:32:25.850Z,25.11
2023-05-04T17:34:53.695Z,25.17
2023-05-04T17:37:21.441Z,25.26
2023-05-04T17:39:49.409Z,25.30
2023-05-04T17:42:18.978Z,25.33
2023-05-04T17:44:46.667Z,25.43
2023-05-04T17:47:15.096Z,25.32
2023-05-04T17:49:42.865Z,25.50
2023-05-04T17:52:12.022Z,25.81
2023-05-04T17:54:43.230Z,25.71
2023-05-04T17:57:10.971Z,25.68
2023-05-04T17:59:41.010Z,25.87
2023-05-04T18:02:09.193Z,26.00
2023-05-04T18:04:38.215Z,25.91
2023-05-04T18:07:05.938Z,26.15
2023-05-04T18:09:36.065Z,26.13
2023-05-04T18:12:05.988Z,26.04
2023-05-04T18:14:33.753Z,26.18
2023-05-04T18:17:03.290Z,26.25
2023-05-04T18:19:34.287Z,26.15
2023-05-04T18:22:02.087Z,26.42
2023-05-04T18:24:31.419Z,26.50
2023-05-04T18:27:02.715Z,26.36
2023-05-04T18:29:30.928Z,26.45
2023-05-04T18:32:04.078Z,26.68
2023-05-04T18:34:39.060Z,26.82
2023-05-04T18:37:09.673Z,26.81
2023-05-04T18:39:39.377Z,27.63
2023-05-04T18:42:08.085Z,27.87
2023-05-04T18:44:35.822Z,28.27
2023-05-04T18:47:03.609Z,28.81
2023-05-04T18:49:31.421Z,29.00
2023-05-04T18:52:01.552Z,29.26
2023-05-04T18:54:34.787Z,29.29
2023-05-04T18:57:03.373Z,29.81
2023-05-04T18:59:35.191Z,29.70
2023-05-04T19:02:03.301Z,29.92
2023-05-04T19:04:32.908Z,29.62
2023-05-04T19:07:02.219Z,29.59
2023-05-04T19:09:29.976Z,30.16
2023-05-04T19:12:00.382Z,30.33
2023-05-04T19:14:30.408Z,30.27
2023-05-04T19:17:00.489Z,30.29
2023-05-04T19:19:28.505Z,30.75
2023-05-04T19:21:56.334Z,30.93
2023-05-04T19:24:25.406Z,31.06
2023-05-04T19:26:54.826Z,30.82
2023-05-04T19:29:22.850Z,31.28
2023-05-04T19:31:54.536Z,31.69
2023-05-04T19:34:22.245Z,32.25
2023-05-04T19:36:50.030Z,32.75
2023-05-04T19:39:18.338Z,33.12
2023-05-04T19:41:47.766Z,33.16
2023-05-04T19:44:17.183Z,33.47
2023-05-04T19:46:47.219Z,33.76
2023-05-04T19:49:15.397Z,33.82
2023-05-04T19:51:44.154Z,34.09
2023-05-04T19:54:12.034Z,34.06
2023-05-04T19:56:39.729Z,33.80
2023-05-04T19:59:07.561Z,33.49
2023-05-04T20:01:37.124Z,33.59
2023-05-04T20:04:08.151Z,33.34
2023-05-04T20:06:39.258Z,33.31
2023-05-04T20:09:08.712Z,33.23
2023-05-04T20:11:39.809Z,33.36
2023-05-04T20:14:07.897Z,33.41
2023-05-04T20:16:35.708Z,33.31
2023-05-04T20:19:04.197Z,33.32
2023-05-04T20:21:32.251Z,33.42
2023-05-04T20:24:00.680Z,33.21
2023-05-04T20:26:28.513Z,33.62
2023-05-04T20:28:56.501Z,33.70
2023-05-04T20:31:24.571Z,34.06
2023-05-04T20:33:53.185Z,33.85
2023-05-04T20:36:21.007Z,33.75
2023-05-04T20:38:49.401Z,33.64
2023-05-04T20:41:18.669Z,33.67
2023-05-04T20:43:46.513Z,33.68
2023-05-04T20:46:14.277Z,33.82
2023-05-04T20:48:42.357Z,33.90
2023-05-04T20:51:14.542Z,34.02
2023-05-04T20:53:43.111Z,33.87
2023-05-04T20:56:10.940Z,34.06
2023-05-04T20:58:41.075Z,34.08
2023-05-04T21:01:09.037Z,33.81
2023-05-04T21:03:37.248Z,33.86
2023-05-04T21:06:06.035Z,33.99
2023-05-04T21:08:33.841Z,34.04
2023-05-04T21:11:01.594Z,34.11
2023-05-04T21:13:29.371Z,33.84
2023-05-04T21:15:59.482Z,34.18
2023-05-04T21:18:28.867Z,33.96
2023-05-04T21:20:56.667Z,33.96
2023-05-04T21:23:25.046Z,34.12
2023-05-04T21:26:01.898Z,34.15
2023-05-04T21:28:30.326Z,34.12
2023-05-04T21:30:58.775Z,34.50
2023-05-04T21:33:26.554Z,34.94
2023-05-04T21:35:54.500Z,34.68
2023-05-04T21:38:22.585Z,34.69
2023-05-04T21:40:50.606Z,35.36
2023-05-04T21:43:18.288Z,35.64
2023-05-04T21:45:46.545Z,36.18
2023-05-04T21:48:14.266Z,36.42
2023-05-04T21:50:41.996Z,36.62
2023-05-04T21:53:09.770Z,36.78
2023-05-04T21:55:37.524Z,37.06
2023-05-04T21:58:05.240Z,37.06
2023-05-04T22:00:33.463Z,37.44
2023-05-04T22:03:01.425Z,37.53
2023-05-04T22:05:29.225Z,37.71
2023-05-04T22:07:56.967Z,37.90
2023-05-04T22:10:24.783Z,37.99
2023-05-04T22:12:52.622Z,38.02
2023-05-04T22:15:20.561Z,38.33
2023-05-04T22:17:48.464Z,38.40
2023-05-04T22:20:16.446Z,38.53
2023-05-04T22:22:44.246Z,38.63
2023-05-04T22:25:12.043Z,38.71
2023-05-04T22:27:39.783Z,38.76
2023-05-04T22:30:08.727Z,38.85
2023-05-04T22:32:37.268Z,38.83
2023-05-04T22:35:05.548Z,38.81
2023-05-04T22:37:33.222Z,38.88
2023-05-04T22:40:07.128Z,39.01
2023-05-04T22:42:34.992Z,39.05
2023-05-04T22:45:02.987Z,39.26
2023-05-04T22:47:30.897Z,39.26
2023-05-04T22:49:58.716Z,39.43
2023-05-04T22:52:26.433Z,39.48
2023-05-04T22:54:54.225Z,39.65
2023-05-04T22:57:22.253Z,39.64
2023-05-04T22:59:50.057Z,39.93
2023-05-04T23:02:17.842Z,40.14
2023-05-04T23:04:45.600Z,40.40
2023-05-04T23:07:13.584Z,40.64
2023-05-04T23:09:45.992Z,40.67
2023-05-04T23:12:15.278Z,40.77
2023-05-04T23:14:43.113Z,40.74
2023-05-04T23:17:10.961Z,40.94
2023-05-04T23:19:38.743Z,41.11
2023-05-04T23:22:06.582Z,41.10
2023-05-04T23:24:34.369Z,41.12
2023-05-04T23:27:02.782Z,41.30
2023-05-04T23:29:30.499Z,41.15
2023-05-04T23:31:58.444Z,41.09
2023-05-04T23:34:27.325Z,41.30
2023-05-04T23:36:55.146Z,41.39
2023-05-04T23:39:22.880Z,41.49
2023-05-04T23:41:50.687Z,41.44
2023-05-04T23:44:18.433Z,41.86
2023-05-04T23:46:46.172Z,41.82
2023-05-04T23:49:15.653Z,42.07
2023-05-04T23:51:43.617Z,42.17
2023-05-04T23:54:11.392Z,42.25
2023-05-04T23:56:39.240Z,42.14
2023-05-04T23:59:07.631Z,42.04
